Time;durP1;ratioP1;P1;durP2;ratioP2;P2;SDS_P1;SDS_P2;PMS_P1;PMS_P2;Temp;Humidity;BMP_temperature;BMP_pressure;BME280_temperature;BME280_humidity;BME280_pressure;Samples;Min_cycle;Max_cycle;Signal;HPM_P1;HPM_P2
2022/06/13 00:02:26;;;;;;;2.63;1.50;;;25.00;40.30;;;;;;8303270;28;20028;-40
2022/06/13 00:06:27;;;;;;;1.60;1.50;;;25.00;40.30;;;;;;8302845;28;20053;-40
2022/06/13 00:10:27;;;;;;;;;;;25.00;40.30;;;;;;8303152;28;20030;-40
2022/06/13 00:14:28;;;;;;;2.03;1.80;;;25.00;40.30;;;;;;8302795;28;19936;-40
2022/06/13 00:18:28;;;;;;;2.10;1.63;;;25.00;40.30;;;;;;8302795;28;20506;-39
2022/06/13 00:22:29;;;;;;;3.17;1.80;;;25.00;40.30;;;;;;8302195;28;20041;-39
2022/06/13 00:26:32;;;;;;;2.05;1.85;;;25.00;40.30;;;;;;8302297;28;20445;-39
2022/06/13 00:30:33;;;;;;;1.90;1.63;;;24.90;40.30;;;;;;8301955;28;20038;-39
2022/06/13 00:34:33;;;;;;;2.00;1.63;;;24.90;40.30;;;;;;8301679;28;20030;-39
2022/06/13 00:38:36;;;;;;;1.95;1.70;;;25.00;40.40;;;;;;8301672;28;20048;-39
2022/06/13 00:42:38;;;;;;;2.58;1.83;;;25.00;40.50;;;;;;8301372;28;20037;-39
2022/06/13 00:46:39;;;;;;;2.53;2.00;;;25.00;40.50;;;;;;8339573;28;20064;-39
2022/06/13 00:50:56;;;;;;;2.35;1.70;;;24.90;40.60;;;;;;8304870;28;20022;-40
2022/06/13 00:54:57;;;;;;;2.13;1.95;;;25.00;40.60;;;;;;8301051;28;20053;-40
2022/06/13 00:59:02;;;;;;;2.95;2.05;;;24.90;40.60;;;;;;8301236;28;20026;-40
2022/06/13 01:03:04;;;;;;;2.00;1.80;;;24.90;40.60;;;;;;8301450;28;20418;-40
2022/06/13 01:07:05;;;;;;;4.03;2.03;;;24.90;40.80;;;;;;8300101;28;20038;-40
2022/06/13 01:11:17;;;;;;;1.98;1.77;;;24.90;40.60;;;;;;8301002;28;20034;-40
2022/06/13 01:15:26;;;;;;;2.30;2.03;;;24.90;40.60;;;;;;8301029;28;20128;-40
2022/06/13 01:19:54;;;;;;;2.70;1.90;;;24.90;40.80;;;;;;8300846;28;20088;-41
2022/06/13 01:24:36;;;;;;;2.33;1.75;;;24.90;40.80;;;;;;8300355;28;20026;-40
2022/06/13 01:29:00;;;;;;;2.17;1.80;;;24.90;40.80;;;;;;8300233;28;20038;-40
2022/06/13 01:33:13;;;;;;;3.05;2.53;;;24.90;41.00;;;;;;8299829;28;20057;-40
2022/06/13 01:37:40;;;;;;;2.67;2.42;;;24.80;40.90;;;;;;8300287;28;20497;-41
2022/06/13 01:41:49;;;;;;;2.50;2.30;;;24.80;41.00;;;;;;8300282;28;20068;-41
2022/06/13 01:46:12;;;;;;;2.60;2.40;;;24.80;40.90;;;;;;8299772;28;20038;-41
2022/06/13 01:50:45;;;;;;;2.65;2.30;;;24.80;41.00;;;;;;8299594;28;20033;-41
2022/06/13 01:54:56;;;;;;;2.60;2.08;;;24.80;41.00;;;;;;8299066;28;20044;-41
2022/06/13 01:59:05;;;;;;;2.45;2.22;;;24.80;41.00;;;;;;8299650;28;20037;-41
2022/06/13 02:03:19;;;;;;;2.88;2.20;;;24.80;41.00;;;;;;8299134;28;20026;-41
2022/06/13 02:07:25;;;;;;;2.47;2.28;;;24.80;41.00;;;;;;8299829;28;20045;-41
2022/06/13 02:11:32;;;;;;;2.67;2.30;;;24.80;41.00;;;;;;8299538;28;20493;-41
2022/06/13 02:15:49;;;;;;;2.70;2.50;;;24.80;41.10;;;;;;8324193;28;20425;-41
2022/06/13 02:20:16;;;;;;;2.97;2.50;;;24.80;41.10;;;;;;8331334;28;20494;-41
2022/06/13 02:24:22;;;;;;;3.33;2.72;;;24.70;41.00;;;;;;8331657;28;20112;-41
2022/06/13 02:28:30;;;;;;;3.83;2.42;;;24.70;41.10;;;;;;8331373;28;20026;-41
2022/06/13 02:32:43;;;;;;;2.67;2.40;;;24.70;41.10;;;;;;8331241;28;20386;-41
2022/06/13 02:36:50;;;;;;;2.58;2.20;;;24.80;41.20;;;;;;8330939;28;20045;-41
2022/06/13 02:40:56;;;;;;;3.00;2.28;;;24.80;41.20;;;;;;8330886;28;20044;-41
2022/06/13 02:45:06;;;;;;;3.28;2.53;;;24.70;41.20;;;;;;8331007;28;20029;-41
2022/06/13 02:49:23;;;;;;;2.95;2.33;;;24.70;41.20;;;;;;8330592;28;20045;-41
2022/06/13 02:53:35;;;;;;;3.45;2.40;;;24.70;41.20;;;;;;8330604;28;20061;-41
2022/06/13 02:57:38;;;;;;;3.50;2.53;;;24.70;41.20;;;;;;8330565;28;20039;-41
2022/06/13 03:01:43;;;;;;;3.30;2.65;;;24.70;41.80;;;;;;8330287;28;20167;-41
2022/06/13 03:06:01;;;;;;;3.00;2.15;;;24.70;41.30;;;;;;8330480;28;20033;-41
2022/06/13 03:10:13;;;;;;;3.03;2.50;;;24.70;41.30;;;;;;8330259;28;20025;-41
2022/06/13 03:14:39;;;;;;;3.20;2.50;;;24.70;41.30;;;;;;8330102;28;20038;-41
2022/06/13 03:18:48;;;;;;;3.17;2.88;;;24.60;41.30;;;;;;8330143;28;20112;-41
2022/06/13 03:23:05;;;;;;;2.63;2.38;;;24.60;41.30;;;;;;8330493;28;20053;-41
2022/06/13 03:27:13;;;;;;;3.22;2.30;;;24.60;41.40;;;;;;8330104;28;20083;-41
2022/06/13 03:31:35;;;;;;;2.65;2.28;;;24.60;41.40;;;;;;8329807;28;20213;-41
2022/06/13 03:35:38;;;;;;;3.30;2.45;;;24.60;41.40;;;;;;8329868;28;20402;-41
2022/06/13 03:40:19;;;;;;;3.53;2.85;;;24.60;41.50;;;;;;8329693;28;20029;-41
2022/06/13 03:44:50;;;;;;;3.20;2.50;;;24.60;41.50;;;;;;8329658;28;20029;-41
2022/06/13 03:49:03;;;;;;;3.78;2.70;;;24.60;41.60;;;;;;8315450;28;20088;-41
2022/06/13 03:53:21;;;;;;;4.22;2.97;;;24.60;41.60;;;;;;8329832;28;20393;-41
2022/06/13 03:57:27;;;;;;;3.38;2.78;;;24.60;41.60;;;;;;8329619;28;20090;-41
2022/06/13 04:01:34;;;;;;;3.08;2.78;;;24.50;41.60;;;;;;8329727;28;20068;-41
2022/06/13 04:05:39;;;;;;;2.90;2.58;;;24.50;41.70;;;;;;8329430;28;20033;-41
2022/06/13 04:09:51;;;;;;;3.17;2.30;;;24.60;41.70;;;;;;8312674;28;20026;-41
2022/06/13 04:13:56;;;;;;;;;;;24.50;41.60;;;;;;8296893;28;20041;-42
2022/06/13 04:18:22;;;;;;;2.83;2.40;;;24.50;41.70;;;;;;8301935;28;19919;-41
2022/06/13 04:22:31;;;;;;;3.47;2.70;;;24.50;41.70;;;;;;8302495;28;20479;-42
2022/06/13 04:26:50;;;;;;;4.28;2.65;;;24.50;41.80;;;;;;8328825;28;20379;-42
2022/06/13 04:30:53;;;;;;;2.97;2.53;;;24.50;41.80;;;;;;8334975;28;20084;-42
2022/06/13 04:34:56;;;;;;;3.42;2.75;;;24.50;41.80;;;;;;8334839;28;20399;-41
2022/06/13 04:39:00;;;;;;;2.65;2.25;;;24.50;41.80;;;;;;8334416;28;20026;-40
2022/06/13 04:43:05;;;;;;;3.05;2.53;;;24.50;41.90;;;;;;8334684;28;20478;-41
2022/06/13 04:47:07;;;;;;;3.03;2.40;;;24.50;41.90;;;;;;8335075;28;20037;-41
2022/06/13 04:51:16;;;;;;;3.15;2.55;;;24.50;41.90;;;;;;8334175;28;20029;-41
2022/06/13 04:55:23;;;;;;;2.97;2.40;;;24.50;41.90;;;;;;8334287;28;20048;-41
2022/06/13 04:59:24;;;;;;;3.33;2.38;;;24.50;41.90;;;;;;8334038;28;20032;-41
2022/06/13 05:03:28;;;;;;;2.40;2.20;;;24.50;42.00;;;;;;8334099;28;20030;-41
2022/06/13 05:07:28;;;;;;;3.03;2.55;;;24.50;42.00;;;;;;8334405;28;20033;-41
2022/06/13 05:11:41;;;;;;;3.58;2.47;;;24.50;42.00;;;;;;8333348;28;20049;-41
2022/06/13 05:15:53;;;;;;;2.70;2.10;;;24.50;41.90;;;;;;8333329;28;20038;-41
2022/06/13 05:20:07;;;;;;;4.05;2.30;;;24.50;41.90;;;;;;8333220;28;20483;-41
2022/06/13 05:24:26;;;;;;;3.08;2.30;;;24.50;41.90;;;;;;8333488;28;20067;-41
2022/06/13 05:28:29;;;;;;;2.63;2.30;;;24.50;41.90;;;;;;8333417;28;20025;-41
2022/06/13 05:32:30;;;;;;;3.30;2.40;;;24.50;41.80;;;;;;8332600;28;20029;-41
2022/06/13 05:36:31;;;;;;;2.65;2.30;;;24.60;41.80;;;;;;8332520;28;20206;-41
2022/06/13 05:40:31;;;;;;;2.55;2.17;;;24.60;41.70;;;;;;8332601;28;20087;-41
2022/06/13 05:44:32;;;;;;;3.72;2.55;;;24.60;41.60;;;;;;8332410;28;20056;-40
2022/06/13 05:48:32;;;;;;;3.25;2.50;;;24.60;41.60;;;;;;8332473;28;20034;-42
2022/06/13 05:52:33;;;;;;;2.95;2.35;;;24.60;41.60;;;;;;8332099;28;20030;-41
2022/06/13 05:56:34;;;;;;;3.38;2.40;;;24.60;41.70;;;;;;8331774;28;20049;-40
2022/06/13 06:00:41;;;;;;;3.55;2.58;;;24.60;41.80;;;;;;8331785;28;20424;-41
2022/06/13 06:04:42;;;;;;;2.25;2.08;;;24.60;41.90;;;;;;8331873;28;20040;-41
2022/06/13 06:08:42;;;;;;;3.65;2.40;;;24.60;42.00;;;;;;8332221;28;20573;-41
2022/06/13 06:12:43;;;;;;;3.53;2.40;;;24.50;42.00;;;;;;8331865;28;20075;-41
2022/06/13 06:16:43;;;;;;;2.25;2.05;;;24.50;42.00;;;;;;8331701;28;20080;-41
2022/06/13 06:20:44;;;;;;;3.50;2.47;;;24.60;42.00;;;;;;8331343;28;20154;-41
2022/06/13 06:24:45;;;;;;;;;;;24.60;42.10;;;;;;8331696;28;20033;-40
2022/06/13 06:28:45;;;;;;;2.93;2.40;;;24.60;42.20;;;;;;8331215;28;19912;-41
2022/06/13 06:32:46;;;;;;;3.42;2.40;;;24.50;42.10;;;;;;8330843;28;20386;-41
2022/06/13 06:36:47;;;;;;;3.13;2.35;;;24.50;42.10;;;;;;8330712;28;20045;-41
2022/06/13 06:40:48;;;;;;;2.95;2.25;;;24.60;42.20;;;;;;8330322;28;20040;-41
2022/06/13 06:44:49;;;;;;;;;;;24.50;42.20;;;;;;8331308;28;20034;-41
2022/06/13 06:48:49;;;;;;;2.07;1.90;;;24.60;42.20;;;;;;8331272;28;20217;-41
2022/06/13 06:52:50;;;;;;;3.70;2.10;;;24.50;42.20;;;;;;8330397;28;20108;-41
2022/06/13 07:01:11;;;;;;;2.30;2.10;;;24.50;42.20;;;;;;8328990;28;20044;-40
2022/06/13 07:05:13;;;;;;;3.78;2.17;;;24.50;42.20;;;;;;8297434;28;20088;-41
2022/06/13 07:09:13;;;;;;;2.10;1.83;;;24.50;42.30;;;;;;8298197;28;20026;-41
2022/06/13 07:13:16;;;;;;;2.08;1.85;;;24.50;42.30;;;;;;8297426;28;20038;-41
2022/06/13 07:17:17;;;;;;;3.15;2.05;;;24.50;42.30;;;;;;8297142;28;20406;-40
2022/06/13 07:21:17;;;;;;;2.78;1.80;;;24.50;42.30;;;;;;8297314;28;20033;-42
2022/06/13 07:25:21;;;;;;;2.20;2.00;;;24.50;42.30;;;;;;8297380;28;20503;-40
2022/06/13 07:29:22;;;;;;;2.70;2.00;;;24.50;42.30;;;;;;8297449;28;20410;-40
2022/06/13 07:33:24;;;;;;;2.90;2.25;;;24.50;42.30;;;;;;8298020;28;20036;-41
2022/06/13 07:41:45;;;;;;;2.97;1.92;;;24.50;42.20;;;;;;8297433;28;20076;-41
2022/06/13 07:45:45;;;;;;;2.10;1.88;;;24.50;42.20;;;;;;8297259;28;20022;-41
2022/06/13 07:49:46;;;;;;;2.63;2.22;;;24.50;42.10;;;;;;8297757;28;20022;-41
2022/06/13 07:53:47;;;;;;;2.30;1.90;;;24.60;42.20;;;;;;8303602;28;20030;-41
2022/06/13 07:57:48;;;;;;;2.60;2.05;;;24.60;42.20;;;;;;8303078;28;20320;-41
2022/06/13 08:01:48;;;;;;;;;;;24.60;42.10;;;;;;8303710;28;20038;-41
2022/06/13 08:05:50;;;;;;;2.37;1.80;;;24.60;42.10;;;;;;8302830;28;19913;-41
2022/06/13 08:09:51;;;;;;;2.20;2.00;;;24.60;42.10;;;;;;8302901;28;20030;-41
2022/06/13 08:13:51;;;;;;;2.10;1.90;;;24.60;42.10;;;;;;8302773;28;20029;-41
2022/06/13 08:17:52;;;;;;;2.30;2.10;;;24.60;42.00;;;;;;8302211;28;20058;-41
2022/06/13 08:21:52;;;;;;;2.95;2.10;;;24.60;42.00;;;;;;8302641;28;20387;-41
2022/06/13 08:25:53;;;;;;;2.28;1.95;;;24.70;42.00;;;;;;8302391;28;20491;-42
2022/06/13 08:29:53;;;;;;;2.28;1.75;;;24.60;42.00;;;;;;8302816;28;20032;-41
2022/06/13 08:33:54;;;;;;;2.38;1.92;;;24.70;42.00;;;;;;8301877;28;20080;-41
2022/06/13 08:37:54;;;;;;;2.75;1.95;;;24.70;41.90;;;;;;8301673;28;20037;-41
2022/06/13 08:42:17;;;;;;;2.65;2.03;;;24.70;41.90;;;;;;8301604;28;20033;-41
2022/06/13 08:46:45;;;;;;;2.17;1.90;;;24.80;41.90;;;;;;8301504;28;20030;-41
2022/06/13 08:51:10;;;;;;;2.22;2.03;;;24.80;41.90;;;;;;8301823;28;20078;-41
2022/06/13 08:55:19;;;;;;;2.95;2.20;;;24.80;41.90;;;;;;8290738;28;20046;-39
2022/06/13 08:59:25;;;;;;;3.13;2.28;;;24.80;41.80;;;;;;8301271;28;20034;-40
2022/06/13 09:03:35;;;;;;;2.88;2.20;;;24.80;41.80;;;;;;8301015;28;20092;-39
2022/06/13 09:07:42;;;;;;;2.05;1.85;;;24.80;41.80;;;;;;8300701;28;20034;-40
2022/06/13 09:11:51;;;;;;;2.63;1.65;;;24.80;41.80;;;;;;8299423;28;20034;-41
2022/06/13 09:16:19;;;;;;;2.33;2.00;;;24.80;41.80;;;;;;8300666;28;20129;-40
2022/06/13 09:20:50;;;;;;;2.42;1.60;;;24.90;41.70;;;;;;8297311;28;20049;-40
2022/06/13 09:25:03;;;;;;;1.88;1.77;;;24.80;41.60;;;;;;8299305;28;20487;-40
2022/06/13 09:29:23;;;;;;;2.60;2.20;;;24.90;41.70;;;;;;8300148;28;20556;-40
2022/06/13 09:33:30;;;;;;;3.28;2.10;;;24.90;41.70;;;;;;8299991;28;20112;-40
2022/06/13 09:37:44;;;;;;;2.60;1.92;;;24.90;41.60;;;;;;8300295;28;20038;-40
2022/06/13 09:41:47;;;;;;;1.90;1.67;;;24.90;41.60;;;;;;8299639;28;20045;-40
2022/06/13 09:46:19;;;;;;;5.75;2.10;;;25.00;41.60;;;;;;8299676;28;20038;-40
2022/06/13 09:50:45;;;;;;;1.98;1.85;;;25.00;41.60;;;;;;8299810;28;20046;-40
2022/06/13 09:55:01;;;;;;;3.30;2.22;;;25.00;41.50;;;;;;8299860;28;20113;-40
2022/06/13 09:59:20;;;;;;;3.00;2.28;;;25.00;41.50;;;;;;8328011;28;20386;-40
2022/06/13 10:03:40;;;;;;;2.38;2.15;;;25.10;41.50;;;;;;8332232;28;20100;-40
2022/06/13 10:07:50;;;;;;;1.92;1.58;;;25.00;41.40;;;;;;8331626;28;20080;-40
2022/06/13 10:12:29;;;;;;;2.28;1.90;;;25.10;41.40;;;;;;8298876;28;20070;-41
2022/06/13 10:16:40;;;;;;;2.10;1.90;;;25.10;41.30;;;;;;8298664;28;20044;-40
2022/06/13 10:20:47;;;;;;;2.05;1.70;;;25.10;41.30;;;;;;8298954;28;20037;-40
2022/06/13 10:25:08;;;;;;;2.17;1.98;;;25.10;41.20;;;;;;8298788;28;20045;-40
2022/06/13 10:29:34;;;;;;;1.70;1.60;;;25.20;41.20;;;;;;8282107;28;20088;-40
2022/06/13 10:33:55;;;;;;;2.08;1.88;;;25.20;41.10;;;;;;8298415;28;20038;-40
2022/06/13 10:38:16;;;;;;;2.85;1.98;;;25.20;41.00;;;;;;8298591;28;20053;-41
2022/06/13 10:42:21;;;;;;;2.00;1.80;;;25.20;41.00;;;;;;8298450;28;20466;-40
2022/06/13 10:46:22;;;;;;;1.70;1.60;;;25.20;40.90;;;;;;8298321;28;20022;-41
2022/06/13 10:50:35;;;;;;;3.30;2.10;;;25.30;40.90;;;;;;8298106;28;20022;-40
2022/06/13 10:54:44;;;;;;;1.92;1.63;;;25.20;40.80;;;;;;8298238;28;20033;-40
2022/06/13 10:58:47;;;;;;;1.92;1.67;;;25.30;40.90;;;;;;8297572;28;20099;-40
2022/06/13 11:02:49;;;;;;;2.40;1.90;;;25.30;41.40;;;;;;8297805;28;20422;-40
2022/06/13 11:06:55;;;;;;;2.17;1.77;;;25.30;40.90;;;;;;8297200;28;20034;-40
2022/06/13 11:11:17;;;;;;;2.20;2.00;;;25.40;40.80;;;;;;8297688;28;20037;-40
2022/06/13 11:24:01;;;;;;;1.55;1.45;;;25.40;40.80;;;;;;8298711;28;20088;-40
2022/06/13 11:28:04;;;;;;;2.20;1.88;;;25.50;40.60;;;;;;8304025;28;20026;-40
2022/06/13 11:32:24;;;;;;;1.90;1.70;;;25.50;40.70;;;;;;8303717;28;20076;-41
2022/06/13 11:36:27;;;;;;;3.40;1.80;;;25.50;40.60;;;;;;8303708;28;20034;-40
2022/06/13 11:40:28;;;;;;;1.70;1.55;;;25.60;40.50;;;;;;8303891;28;20026;-40
2022/06/13 11:44:30;;;;;;;1.73;1.50;;;25.60;40.50;;;;;;8303498;28;20029;-40
2022/06/13 11:48:31;;;;;;;2.42;1.83;;;25.60;40.40;;;;;;8303485;28;20042;-40
2022/06/13 11:57:12;;;;;;;1.75;1.50;;;25.70;40.40;;;;;;8303180;28;19971;-40
2022/06/13 12:01:38;;;;;;;1.55;1.40;;;25.70;40.30;;;;;;8303133;28;20471;-40
2022/06/13 12:05:39;;;;;;;1.67;1.50;;;25.70;40.30;;;;;;8303170;28;20076;-40
2022/06/13 12:09:52;;;;;;;3.30;1.77;;;25.70;40.30;;;;;;8330030;28;20112;-40
2022/06/13 12:13:56;;;;;;;1.73;1.63;;;25.70;40.30;;;;;;8335425;28;20057;-40
2022/06/13 12:18:05;;;;;;;1.75;1.40;;;25.80;40.30;;;;;;8335195;28;20041;-41
2022/06/13 12:22:09;;;;;;;2.17;1.52;;;25.80;40.30;;;;;;8335104;28;20025;-40
2022/06/13 12:26:31;;;;;;;1.70;1.08;;;25.80;40.20;;;;;;8335496;28;20026;-40
2022/06/13 12:30:41;;;;;;;2.42;1.40;;;25.80;40.20;;;;;;8335094;28;20026;-40
2022/06/13 12:35:03;;;;;;;2.85;1.50;;;25.90;40.30;;;;;;8334622;28;20025;-40
2022/06/13 12:39:32;;;;;;;2.80;1.83;;;25.90;40.30;;;;;;8334293;28;20390;-40
2022/06/13 12:44:02;;;;;;;1.85;1.60;;;25.90;40.10;;;;;;8334753;28;20144;-40
2022/06/13 12:48:19;;;;;;;1.57;1.33;;;25.90;40.20;;;;;;8334472;28;20390;-40
2022/06/13 12:52:54;;;;;;;3.08;1.42;;;25.90;40.20;;;;;;8334031;28;20025;-40
2022/06/13 12:57:14;;;;;;;1.65;1.30;;;25.90;40.10;;;;;;8331533;28;20049;-40
2022/06/13 13:01:55;;;;;;;2.17;1.70;;;25.90;40.10;;;;;;8334491;28;20490;-40
2022/06/13 13:06:37;;;;;;;1.95;1.48;;;25.90;40.00;;;;;;8327346;28;20049;-39
2022/06/13 13:10:45;;;;;;;3.53;1.90;;;26.00;40.10;;;;;;8333472;28;20093;-40
2022/06/13 13:15:30;;;;;;;2.05;1.70;;;26.00;40.00;;;;;;8333814;28;20033;-41
2022/06/13 13:19:49;;;;;;;1.85;1.55;;;26.00;39.90;;;;;;8333189;28;20076;-40
2022/06/13 13:24:03;;;;;;;2.55;1.50;;;26.00;39.80;;;;;;8333441;28;20352;-40
2022/06/13 13:28:15;;;;;;;1.85;1.63;;;26.00;39.70;;;;;;8332811;28;20030;-40
2022/06/13 13:32:24;;;;;;;1.58;1.48;;;26.00;40.20;;;;;;8333205;28;20034;-39
2022/06/13 13:36:48;;;;;;;1.40;1.30;;;26.00;39.60;;;;;;8332691;28;20041;-40
2022/06/13 13:40:54;;;;;;;1.48;1.20;;;26.00;39.70;;;;;;8332570;28;20128;-40
2022/06/13 13:45:20;;;;;;;2.17;1.58;;;26.00;39.60;;;;;;8332370;28;20038;-40
2022/06/13 13:49:42;;;;;;;1.95;1.42;;;26.00;39.60;;;;;;8331207;28;20506;-40
2022/06/13 13:53:49;;;;;;;1.30;1.20;;;26.10;39.60;;;;;;8331977;28;20064;-40
2022/06/13 13:57:59;;;;;;;2.58;1.30;;;26.10;39.70;;;;;;8331942;28;20041;-40
2022/06/13 14:02:20;;;;;;;1.43;1.33;;;26.10;39.80;;;;;;8332428;28;20440;-40
2022/06/13 14:06:34;;;;;;;2.65;1.20;;;26.10;39.80;;;;;;8332387;28;20083;-40
2022/06/13 14:10:41;;;;;;;1.35;1.25;;;26.10;39.70;;;;;;8331797;28;20038;-40
2022/06/13 14:14:59;;;;;;;1.58;1.48;;;26.10;39.60;;;;;;8331780;28;20100;-40
2022/06/13 14:19:24;;;;;;;1.42;1.30;;;26.20;39.70;;;;;;8331274;28;20040;-40
2022/06/13 14:23:52;;;;;;;1.38;1.25;;;26.20;39.50;;;;;;8331603;28;20060;-41
2022/06/13 14:27:58;;;;;;;1.90;1.30;;;26.20;39.60;;;;;;8315984;28;20508;-41
2022/06/13 14:32:31;;;;;;;1.88;1.20;;;26.20;39.70;;;;;;8331692;28;20021;-41
2022/06/13 14:36:47;;;;;;;2.63;1.60;;;26.20;39.50;;;;;;8298901;28;20434;-40
2022/06/13 14:40:57;;;;;;;1.65;1.30;;;26.20;39.50;;;;;;8298620;28;20034;-39
2022/06/13 14:45:04;;;;;;;3.60;1.42;;;26.20;39.60;;;;;;8298186;28;20022;-38
2022/06/13 14:49:26;;;;;;;1.75;1.38;;;26.20;39.50;;;;;;8297989;28;20030;-39
2022/06/13 14:53:36;;;;;;;1.40;1.25;;;26.20;39.50;;;;;;8297743;28;20399;-40
2022/06/13 14:57:46;;;;;;;2.10;1.33;;;26.20;39.40;;;;;;8298004;28;20030;-40
2022/06/13 15:02:13;;;;;;;1.65;1.30;;;26.20;39.50;;;;;;8297797;28;20032;-40
2022/06/13 15:06:19;;;;;;;1.75;1.30;;;26.20;39.30;;;;;;8297920;28;20038;-40
2022/06/13 15:10:29;;;;;;;2.35;1.45;;;26.20;39.40;;;;;;8297681;28;20030;-40
2022/06/13 15:14:39;;;;;;;1.60;1.40;;;26.20;39.50;;;;;;8297139;28;20040;-39
2022/06/13 15:18:46;;;;;;;3.33;1.15;;;26.20;39.40;;;;;;8297040;28;20422;-39
2022/06/13 15:22:51;;;;;;;1.40;1.30;;;26.20;39.20;;;;;;8297438;28;20490;-39
2022/06/13 15:27:06;;;;;;;1.83;1.50;;;26.20;39.10;;;;;;8297628;28;20479;-40
2022/06/13 15:31:14;;;;;;;1.63;1.52;;;26.20;39.10;;;;;;8297433;28;20030;-39
2022/06/13 15:35:18;;;;;;;1.30;1.15;;;26.20;39.20;;;;;;8296877;28;20153;-39
2022/06/13 15:39:19;;;;;;;2.78;1.80;;;26.20;39.20;;;;;;8296973;28;20387;-39
2022/06/13 15:43:45;;;;;;;2.10;1.15;;;26.20;39.30;;;;;;8300569;28;20052;-39
2022/06/13 15:47:48;;;;;;;1.30;1.20;;;26.20;39.10;;;;;;8324707;28;20057;-39
2022/06/13 15:52:13;;;;;;;1.52;1.10;;;26.20;39.30;;;;;;8329467;28;20041;-39
2022/06/13 15:56:35;;;;;;;1.20;1.10;;;26.30;39.30;;;;;;8329561;28;20038;-39
2022/06/13 16:00:39;;;;;;;2.92;1.30;;;26.20;39.30;;;;;;8329290;28;20041;-39
2022/06/13 16:04:39;;;;;;;1.27;1.17;;;26.20;39.10;;;;;;8312626;28;20026;-39
2022/06/13 16:08:40;;;;;;;;;;;26.20;39.20;;;;;;8296897;28;20470;-39
2022/06/13 16:12:48;;;;;;;2.10;1.00;;;26.20;39.20;;;;;;8300143;28;19905;-39
2022/06/13 16:16:55;;;;;;;2.03;1.20;;;26.20;39.20;;;;;;8302551;28;20046;-39
2022/06/13 16:20:56;;;;;;;1.08;0.98;;;26.20;39.30;;;;;;8302637;28;20072;-39
2022/06/13 16:25:01;;;;;;;1.15;1.05;;;26.20;39.30;;;;;;8302271;28;20069;-39
2022/06/13 16:29:03;;;;;;;2.45;1.52;;;26.20;39.30;;;;;;8302430;28;20111;-39
2022/06/13 16:33:05;;;;;;;1.13;1.05;;;26.20;39.30;;;;;;8302974;28;20109;-39
2022/06/13 16:37:08;;;;;;;1.40;1.10;;;26.20;39.30;;;;;;8302063;28;20049;-40
2022/06/13 16:41:39;;;;;;;2.08;1.38;;;26.20;39.30;;;;;;8301909;28;20076;-39
2022/06/13 16:45:40;;;;;;;1.63;1.40;;;26.20;39.30;;;;;;8302000;28;20034;-39
2022/06/13 16:49:48;;;;;;;;;;;26.20;39.30;;;;;;8301707;28;20107;-39
2022/06/13 16:53:53;;;;;;;1.80;1.27;;;26.20;39.30;;;;;;8301148;28;20405;-40
2022/06/13 16:57:55;;;;;;;1.23;1.13;;;26.20;39.40;;;;;;8301284;28;20038;-39
2022/06/13 17:01:58;;;;;;;1.75;1.05;;;26.20;39.40;;;;;;8300969;28;20371;-40
2022/06/13 17:05:59;;;;;;;2.13;1.30;;;26.20;39.40;;;;;;8300829;28;20030;-40
2022/06/13 17:10:02;;;;;;;;;;;26.20;39.40;;;;;;8301162;28;20025;-40
2022/06/13 17:14:02;;;;;;;1.90;1.30;;;26.20;39.40;;;;;;8300783;28;19968;-40
2022/06/13 17:18:04;;;;;;;;;;;26.20;39.50;;;;;;8300957;28;20030;-40
2022/06/13 17:22:05;;;;;;;1.17;1.00;;;26.20;39.50;;;;;;8299922;28;19916;-40
2022/06/13 17:34:46;;;;;;;1.90;1.48;;;26.10;39.40;;;;;;8299722;28;20030;-40
2022/06/13 17:38:46;;;;;;;1.90;1.23;;;26.10;39.40;;;;;;8299514;28;20044;-40
2022/06/13 17:42:47;;;;;;;;;;;26.10;39.50;;;;;;8300244;28;20022;-39
2022/06/13 17:46:47;;;;;;;1.53;1.03;;;26.10;39.50;;;;;;8299323;28;19909;-39
2022/06/13 17:50:48;;;;;;;;;;;26.10;39.50;;;;;;8299929;28;20405;-40
2022/06/13 17:54:48;;;;;;;1.17;1.00;;;26.10;39.50;;;;;;8299166;28;19909;-40
2022/06/13 17:58:49;;;;;;;;;;;26.10;39.50;;;;;;8299391;28;20387;-40
2022/06/13 18:03:08;;;;;;;1.23;1.13;;;26.10;39.50;;;;;;8299857;28;20360;-39
2022/06/13 18:07:09;;;;;;;1.48;1.00;;;26.10;39.60;;;;;;8298859;28;20036;-39
2022/06/13 18:11:10;;;;;;;1.17;1.08;;;26.10;39.50;;;;;;8299403;28;20593;-39
2022/06/13 18:15:11;;;;;;;;;;;26.10;39.50;;;;;;8299710;28;20029;-40
2022/06/13 18:19:15;;;;;;;1.55;1.02;;;26.00;39.50;;;;;;8298726;28;19935;-40
2022/06/13 18:23:16;;;;;;;1.10;0.98;;;26.00;39.50;;;;;;8298628;28;20487;-40
2022/06/13 18:27:19;;;;;;;1.35;1.17;;;26.00;39.50;;;;;;8298522;28;20030;-41
2022/06/13 18:31:21;;;;;;;1.25;1.08;;;26.00;39.40;;;;;;8298274;28;20033;-40
2022/06/13 18:35:21;;;;;;;1.20;1.10;;;26.00;39.50;;;;;;8298082;28;20483;-40
2022/06/13 18:39:22;;;;;;;;;;;26.00;39.60;;;;;;8298627;28;20034;-40
2022/06/13 18:43:23;;;;;;;1.83;1.13;;;26.00;39.50;;;;;;8298337;28;19905;-40
2022/06/13 18:47:24;;;;;;;;;;;26.00;39.70;;;;;;8298268;28;20076;-40
2022/06/13 18:51:25;;;;;;;2.00;1.20;;;26.00;39.60;;;;;;8297932;28;19921;-40
2022/06/13 18:55:27;;;;;;;1.23;1.02;;;25.90;39.70;;;;;;8297547;28;20034;-39
2022/06/13 18:59:28;;;;;;;1.10;1.00;;;25.90;39.60;;;;;;8297994;28;20025;-40
2022/06/13 19:03:34;;;;;;;2.30;1.05;;;25.90;39.70;;;;;;8318704;28;20116;-40
2022/06/13 19:07:35;;;;;;;2.08;0.90;;;25.90;39.80;;;;;;8331087;28;20437;-40
2022/06/13 19:11:36;;;;;;;2.17;1.20;;;25.90;39.80;;;;;;8330489;28;20116;-39
2022/06/13 19:15:40;;;;;;;1.45;1.10;;;25.90;39.90;;;;;;8329998;28;20477;-39
2022/06/13 19:19:41;;;;;;;1.20;1.10;;;25.90;39.90;;;;;;8330221;28;20071;-39
2022/06/13 19:23:42;;;;;;;1.35;1.25;;;25.90;40.00;;;;;;8330447;28;20017;-39
2022/06/13 19:27:45;;;;;;;1.58;1.20;;;25.90;40.00;;;;;;8329725;28;20048;-39
2022/06/13 19:31:48;;;;;;;3.72;1.40;;;25.90;40.00;;;;;;8329659;28;20045;-39
2022/06/13 19:35:53;;;;;;;1.35;1.13;;;25.90;40.00;;;;;;8329895;28;20048;-40
2022/06/13 19:39:55;;;;;;;1.40;1.27;;;25.80;40.00;;;;;;8329843;28;20029;-40
2022/06/13 19:43:55;;;;;;;1.58;1.20;;;25.80;40.00;;;;;;8330130;28;20113;-40
2022/06/13 19:47:57;;;;;;;1.10;1.00;;;25.90;40.00;;;;;;8334779;28;20370;-40
2022/06/13 19:51:57;;;;;;;1.35;1.10;;;25.80;40.00;;;;;;8336002;28;20042;-40
2022/06/13 19:56:03;;;;;;;1.25;1.00;;;25.80;40.00;;;;;;8336157;28;20116;-40
2022/06/13 20:00:05;;;;;;;1.38;1.20;;;25.80;40.00;;;;;;8335618;28;20124;-39
2022/06/13 20:04:07;;;;;;;2.00;1.23;;;25.80;40.10;;;;;;8335729;28;20486;-40
2022/06/13 20:08:23;;;;;;;1.00;1.00;;;25.80;40.10;;;;;;8335373;28;20156;-40
2022/06/13 20:12:28;;;;;;;2.80;1.30;;;25.80;40.10;;;;;;8346450;28;20063;-40
2022/06/13 20:16:36;;;;;;;1.20;1.10;;;25.70;40.10;;;;;;8359428;28;20440;-40
2022/06/13 20:20:37;;;;;;;1.40;1.20;;;25.70;40.10;;;;;;8353214;28;20022;-40
2022/06/13 20:24:38;;;;;;;2.25;1.30;;;25.70;40.10;;;;;;8302167;28;20072;-40
2022/06/13 20:28:39;;;;;;;1.48;1.20;;;25.70;40.10;;;;;;8302000;28;20034;-40
2022/06/13 20:32:39;;;;;;;1.75;1.33;;;25.70;40.10;;;;;;8302302;28;20034;-40
2022/06/13 20:36:41;;;;;;;3.25;1.63;;;25.70;40.20;;;;;;8302041;28;20042;-40
2022/06/13 20:40:43;;;;;;;1.73;1.15;;;25.70;40.20;;;;;;8301862;28;20430;-40
2022/06/13 20:44:48;;;;;;;1.52;1.38;;;25.70;40.20;;;;;;8301980;28;20177;-40
2022/06/13 20:48:55;;;;;;;2.65;1.50;;;25.60;40.10;;;;;;8301249;28;20080;-40
2022/06/13 20:52:57;;;;;;;2.35;1.27;;;25.60;40.20;;;;;;8301211;28;20594;-40
2022/06/13 20:56:58;;;;;;;1.73;1.40;;;25.60;40.70;;;;;;8300378;28;20057;-40
2022/06/13 21:00:59;;;;;;;2.00;1.42;;;25.60;40.20;;;;;;8301017;28;20520;-40
2022/06/13 21:05:00;;;;;;;;;;;25.60;40.20;;;;;;8301532;28;20542;-40
2022/06/13 21:13:22;;;;;;;1.90;1.60;;;25.60;40.30;;;;;;8301249;28;20092;-40
2022/06/13 21:17:22;;;;;;;1.52;1.33;;;25.60;40.30;;;;;;8301016;28;20041;-40
2022/06/13 21:21:23;;;;;;;2.45;1.58;;;25.50;40.30;;;;;;8300519;28;20104;-39
2022/06/13 21:25:25;;;;;;;;;;;25.50;40.30;;;;;;8300842;28;20062;-40
2022/06/13 21:29:29;;;;;;;2.70;1.58;;;25.50;40.30;;;;;;8300494;28;19959;-40
2022/06/13 21:33:29;;;;;;;2.83;2.00;;;25.50;40.30;;;;;;8300035;28;20045;-39
2022/06/13 21:37:30;;;;;;;1.60;1.42;;;25.50;40.30;;;;;;8300041;28;20045;-39
2022/06/13 21:41:31;;;;;;;2.28;1.67;;;25.40;40.30;;;;;;8300416;28;20064;-39
2022/06/13 21:45:33;;;;;;;1.75;1.65;;;25.40;40.30;;;;;;8299828;28;20316;-39
2022/06/13 21:49:38;;;;;;;4.10;1.80;;;25.50;40.40;;;;;;8299781;28;20040;-39
2022/06/13 21:53:43;;;;;;;2.70;2.03;;;25.40;40.30;;;;;;8299544;28;20033;-39
2022/06/13 21:57:43;;;;;;;2.30;2.03;;;25.40;40.40;;;;;;8299235;28;20041;-39
2022/06/13 22:01:44;;;;;;;2.38;1.88;;;25.40;40.40;;;;;;8312193;28;20103;-40
2022/06/13 22:05:47;;;;;;;2.53;1.67;;;25.40;40.40;;;;;;8330748;28;20433;-40
2022/06/13 22:09:47;;;;;;;2.10;1.70;;;25.40;40.40;;;;;;8331045;28;20033;-40
2022/06/13 22:13:48;;;;;;;2.67;1.70;;;25.40;40.40;;;;;;8331546;28;20038;-40